Fireboat Challenger — WR8183 — position and weather

sailwx.info

Track history (hours):
 
Tides and Currents Weather Stations Pressure Air Temp Water Temp Dewpoint Dewpoint Depression Visibility Wind Speed Wind Dir Waves Ship Positions

Fireboat Challenger

Owner: Long Beach, City of, LONG BEACH, CA. More information available from US FCC via Universal Licensing System and Coast Guard Vessel Documentation Center.

Last reported at 2017-Jun-18 03:16 UTC. Time now 2017-Jun-28 03:44 UTC.
Position N 33°44' W 118°16'.
Warning: this ship's position is 10 days out of date.

Length 29 m.

MMSI: 367067790.

Date/timePositionNaut miles runAvg speedWind from/ knotsBaromVisibWave heightAir tempDewpointWater temp
2017-Jun-18 03:16N 33°44' W 118°16'0 0.4
2017-Jun-18 03:01N 33°44' W 118°16'5 9.1
2017-Jun-18 02:30N 33°40' W 118°12'5 9.7
2017-Jun-18 02:01N 33°36' W 118°12'510.0
2017-Jun-18 01:30N 33°31' W 118°14'510.1
2017-Jun-18 01:01N 33°26' W 118°16'510.1
2017-Jun-18 00:31N 33°21' W 118°18'1 1.9
2017-Jun-17 23:53N 33°20' W 118°19'1 3.8
2017-Jun-17 23:30N 33°19' W 118°18'4 7.3
2017-Jun-17 23:01N 33°15' W 118°18'510.9
2017-Jun-17 22:31N 33°10' W 118°19'510.9
2017-Jun-17 22:01N 33°04' W 118°20'4 8.8
2017-Jun-17 21:31N 32°60' W 118°21'4 8.3
2017-Jun-17 21:01N 32°56' W 118°21'4 7.1
2017-Jun-17 20:30N 32°53' W 118°23'1 2.2
2017-Jun-17 20:00N 32°52' W 118°24'1 1.0
2017-Jun-17 19:31N 32°51' W 118°24'0 0.1
2017-Jun-17 19:01N 32°51' W 118°24'2 4.4
2017-Jun-17 18:31N 32°50' W 118°22'4 7.1
2017-Jun-17 18:00N 32°48' W 118°25'1 1.7
2017-Jun-17 17:30N 32°48' W 118°26'2 4.6
2017-Jun-17 17:00N 32°46' W 118°24'2 3.7
2017-Jun-17 16:31N 32°48' W 118°25'1 1.5
2017-Jun-17 16:00N 32°48' W 118°24'1 1.8
2017-Jun-17 15:19N 32°49' W 118°23'0 0.1
2017-Jun-17 15:01N 32°49' W 118°23'2 1.8
2017-Jun-17 14:00N 32°50' W 118°21'4 7.7
2017-Jun-17 13:30N 32°52' W 118°25'4 7.4
2017-Jun-17 13:00N 32°56' W 118°25'5 9.7
2017-Jun-17 12:30N 33°00' W 118°23'5 9.8
2017-Jun-17 12:01N 33°05' W 118°21'5 9.6
2017-Jun-17 11:28N 33°10' W 118°19'4 9.2
2017-Jun-17 11:00N 33°14' W 118°18'4 9.2
2017-Jun-17 10:31N 33°18' W 118°16'5 9.4
2017-Jun-17 10:01N 33°23' W 118°16'  
Track history (hours):
 
Tides and Currents Weather Stations Pressure Air Temp Water Temp Dewpoint Dewpoint Depression Visibility Wind Speed Wind Dir Waves Ship Positions

Fireboat Challenger

Owner: Long Beach, City of, LONG BEACH, CA. More information available from US FCC via Universal Licensing System and Coast Guard Vessel Documentation Center.

Last reported at 2017-Jun-18 03:16 UTC. Time now 2017-Jun-28 03:44 UTC.
Position N 33°44' W 118°16'.
Warning: this ship's position is 10 days out of date.

Length 29 m.

MMSI: 367067790.

Date/timePositionNaut miles runAvg speedWind from/ knotsBaromVisibWave heightAir tempDewpointWater temp
2017-Jun-18 03:16N 33°44' W 118°16'0 0.4
2017-Jun-18 03:01N 33°44' W 118°16'5 9.1
2017-Jun-18 02:30N 33°40' W 118°12'5 9.7
2017-Jun-18 02:01N 33°36' W 118°12'510.0
2017-Jun-18 01:30N 33°31' W 118°14'510.1
2017-Jun-18 01:01N 33°26' W 118°16'510.1
2017-Jun-18 00:31N 33°21' W 118°18'1 1.9
2017-Jun-17 23:53N 33°20' W 118°19'1 3.8
2017-Jun-17 23:30N 33°19' W 118°18'4 7.3
2017-Jun-17 23:01N 33°15' W 118°18'510.9
2017-Jun-17 22:31N 33°10' W 118°19'510.9
2017-Jun-17 22:01N 33°04' W 118°20'4 8.8
2017-Jun-17 21:31N 32°60' W 118°21'4 8.3
2017-Jun-17 21:01N 32°56' W 118°21'4 7.1
2017-Jun-17 20:30N 32°53' W 118°23'1 2.2
2017-Jun-17 20:00N 32°52' W 118°24'1 1.0
2017-Jun-17 19:31N 32°51' W 118°24'0 0.1
2017-Jun-17 19:01N 32°51' W 118°24'2 4.4
2017-Jun-17 18:31N 32°50' W 118°22'4 7.1
2017-Jun-17 18:00N 32°48' W 118°25'1 1.7
2017-Jun-17 17:30N 32°48' W 118°26'2 4.6
2017-Jun-17 17:00N 32°46' W 118°24'2 3.7
2017-Jun-17 16:31N 32°48' W 118°25'1 1.5
2017-Jun-17 16:00N 32°48' W 118°24'1 1.8
2017-Jun-17 15:19N 32°49' W 118°23'0 0.1
2017-Jun-17 15:01N 32°49' W 118°23'2 1.8
2017-Jun-17 14:00N 32°50' W 118°21'4 7.7
2017-Jun-17 13:30N 32°52' W 118°25'4 7.4
2017-Jun-17 13:00N 32°56' W 118°25'5 9.7
2017-Jun-17 12:30N 33°00' W 118°23'5 9.8
2017-Jun-17 12:01N 33°05' W 118°21'5 9.6
2017-Jun-17 11:28N 33°10' W 118°19'4 9.2
2017-Jun-17 11:00N 33°14' W 118°18'4 9.2
2017-Jun-17 10:31N 33°18' W 118°16'5 9.4
2017-Jun-17 10:01N 33°23' W 118°16'  

Dump ship's entire track history